Time;durP1;ratioP1;P1;durP2;ratioP2;P2;SDS_P1;SDS_P2;PMS_P1;PMS_P2;Temp;Humidity;BMP_temperature;BMP_pressure;BME280_temperature;BME280_humidity;BME280_pressure;Samples;Min_cycle;Max_cycle;Signal;HPM_P1;HPM_P2
2023/09/14 00:00:10;;;;;;;13.35;6.22;;;;;;;;;;5091491;28;20024;-71
2023/09/14 00:02:35;;;;;;;10.80;6.45;;;;;;;;;;5090971;28;20027;-70
2023/09/14 00:05:01;;;;;;;13.43;6.60;;;;;;;;;;5091145;28;20443;-75
2023/09/14 00:07:26;;;;;;;6.28;5.68;;;;;;;;;;5089018;28;20110;-71
2023/09/14 00:09:51;;;;;;;13.52;5.60;;;;;;;;;;5089578;28;20032;-71
2023/09/14 00:12:17;;;;;;;10.50;6.47;;;;;;;;;;5091362;28;20024;-73
2023/09/14 00:14:42;;;;;;;10.57;7.07;;;;;;;;;;5090795;27;20549;-71
2023/09/14 00:17:08;;;;;;;15.02;7.63;;;;;;;;;;5090834;28;20023;-72
2023/09/14 00:19:33;;;;;;;10.85;6.78;;;;;;;;;;5090436;28;20501;-71
2023/09/14 00:21:58;;;;;;;13.85;7.20;;;;;;;;;;5091070;28;20023;-71
2023/09/14 00:24:24;;;;;;;10.73;6.65;;;;;;;;;;5090769;28;20027;-74
2023/09/14 00:26:49;;;;;;;12.05;7.60;;;;;;;;;;5090615;28;20028;-71
2023/09/14 00:29:14;;;;;;;12.35;7.63;;;;;;;;;;5090818;28;20457;-72
2023/09/14 00:31:40;;;;;;;17.60;9.18;;;;;;;;;;5090516;28;20030;-74
2023/09/14 00:34:05;;;;;;;11.25;6.68;;;;;;;;;;5090418;28;20043;-72
2023/09/14 00:36:30;;;;;;;8.25;5.80;;;;;;;;;;5090959;28;20023;-72
2023/09/14 00:38:56;;;;;;;7.43;5.82;;;;;;;;;;5090880;28;21160;-74
2023/09/14 00:41:21;;;;;;;16.55;8.77;;;;;;;;;;5097417;28;20075;-72
2023/09/14 00:43:47;;;;;;;11.75;7.75;;;;;;;;;;5099261;28;20055;-69
2023/09/14 00:46:12;;;;;;;11.50;6.82;;;;;;;;;;5097559;28;20031;-69
2023/09/14 00:48:38;;;;;;;9.90;6.70;;;;;;;;;;5094353;28;20035;-69
2023/09/14 00:51:03;;;;;;;9.20;6.05;;;;;;;;;;5089765;28;20508;-71
2023/09/14 00:53:28;;;;;;;8.85;6.45;;;;;;;;;;5099543;28;20031;-70
2023/09/14 00:55:54;;;;;;;12.63;7.45;;;;;;;;;;5101939;28;20327;-72
2023/09/14 00:58:20;;;;;;;9.27;6.82;;;;;;;;;;5101294;28;20103;-73
2023/09/14 01:00:46;;;;;;;8.77;6.72;;;;;;;;;;5102789;28;20027;-73
2023/09/14 01:03:14;;;;;;;9.13;6.18;;;;;;;;;;5096965;28;20047;-69
2023/09/14 01:05:40;;;;;;;8.15;6.18;;;;;;;;;;5098062;28;20024;-73
2023/09/14 01:08:05;;;;;;;11.18;6.55;;;;;;;;;;5095892;28;20383;-70
2023/09/14 01:10:31;;;;;;;6.13;5.55;;;;;;;;;;5094368;27;21097;-71
2023/09/14 01:12:57;;;;;;;9.77;6.85;;;;;;;;;;5097834;28;20036;-70
2023/09/14 01:15:36;;;;;;;7.68;5.57;;;;;;;;;;5099761;28;20024;-72
2023/09/14 01:18:23;;;;;;;12.07;6.60;;;;;;;;;;5096637;28;20102;-71
2023/09/14 01:21:00;;;;;;;9.32;6.72;;;;;;;;;;5093999;28;20252;-71
2023/09/14 01:23:28;;;;;;;10.88;6.15;;;;;;;;;;5099153;28;20036;-71
2023/09/14 01:25:54;;;;;;;8.50;5.93;;;;;;;;;;5091471;28;20118;-72
2023/09/14 01:28:19;;;;;;;8.30;5.97;;;;;;;;;;5097093;28;20142;-71
2023/09/14 01:30:45;;;;;;;9.35;5.95;;;;;;;;;;5099261;28;20082;-71
2023/09/14 01:33:13;;;;;;;8.60;6.70;;;;;;;;;;5092753;28;20059;-70
2023/09/14 01:35:57;;;;;;;14.10;6.47;;;;;;;;;;5097165;28;20154;-71
2023/09/14 01:38:24;;;;;;;9.93;6.32;;;;;;;;;;5093086;28;20053;-70
2023/09/14 01:40:50;;;;;;;12.52;6.82;;;;;;;;;;5089188;27;20510;-69
2023/09/14 01:43:16;;;;;;;9.13;6.50;;;;;;;;;;5098304;28;20110;-70
2023/09/14 01:45:41;;;;;;;11.27;6.72;;;;;;;;;;5092719;28;20020;-70
2023/09/14 01:48:07;;;;;;;10.15;7.00;;;;;;;;;;5090279;28;20446;-74
2023/09/14 01:50:32;;;;;;;8.88;6.43;;;;;;;;;;5099806;28;20036;-70
2023/09/14 01:52:58;;;;;;;10.27;6.93;;;;;;;;;;5090490;28;20042;-69
2023/09/14 01:55:23;;;;;;;10.68;6.35;;;;;;;;;;5096075;27;20498;-71
2023/09/14 01:57:48;;;;;;;10.35;6.32;;;;;;;;;;5097041;28;20039;-71
2023/09/14 02:00:15;;;;;;;9.18;6.57;;;;;;;;;;5097026;28;20055;-71
2023/09/14 02:02:40;;;;;;;13.88;7.50;;;;;;;;;;5100041;28;20027;-71
2023/09/14 02:05:06;;;;;;;9.20;7.35;;;;;;;;;;5098791;28;20464;-72
2023/09/14 02:07:31;;;;;;;11.30;7.10;;;;;;;;;;5094098;28;20470;-70
2023/09/14 02:09:56;;;;;;;10.48;6.63;;;;;;;;;;5100859;28;20035;-71
2023/09/14 02:12:22;;;;;;;12.70;6.90;;;;;;;;;;5088899;27;20027;-69
2023/09/14 02:14:47;;;;;;;11.10;7.47;;;;;;;;;;5095592;28;20038;-70
2023/09/14 02:17:12;;;;;;;17.50;7.88;;;;;;;;;;5098872;27;20028;-71
2023/09/14 02:19:38;;;;;;;13.50;7.63;;;;;;;;;;5097909;28;20427;-70
2023/09/14 02:22:03;;;;;;;12.98;7.38;;;;;;;;;;5094363;28;20016;-71
2023/09/14 02:24:29;;;;;;;10.52;6.75;;;;;;;;;;5093126;28;20096;-71
2023/09/14 02:26:54;;;;;;;10.85;6.35;;;;;;;;;;5099080;28;20462;-69
2023/09/14 02:29:20;;;;;;;11.75;6.95;;;;;;;;;;5096789;28;20441;-73
2023/09/14 02:31:45;;;;;;;7.53;6.05;;;;;;;;;;5100105;28;20024;-68
2023/09/14 02:34:10;;;;;;;9.50;6.10;;;;;;;;;;5095374;28;20685;-72
2023/09/14 02:36:36;;;;;;;7.47;6.47;;;;;;;;;;5094325;28;20024;-68
2023/09/14 02:39:01;;;;;;;7.35;6.22;;;;;;;;;;5097851;28;20035;-69
2023/09/14 02:41:26;;;;;;;11.63;6.25;;;;;;;;;;5096597;28;20116;-71
2023/09/14 02:43:52;;;;;;;9.93;6.70;;;;;;;;;;5096515;28;20106;-68
2023/09/14 02:46:18;;;;;;;7.78;6.20;;;;;;;;;;5098591;28;20128;-73
2023/09/14 02:48:44;;;;;;;9.35;6.43;;;;;;;;;;5096209;28;20436;-70
2023/09/14 02:51:09;;;;;;;7.95;6.18;;;;;;;;;;5091436;28;20039;-71
2023/09/14 02:53:34;;;;;;;9.73;6.45;;;;;;;;;;5096905;28;20076;-72
2023/09/14 02:56:00;;;;;;;7.88;5.95;;;;;;;;;;5093544;28;20035;-70
2023/09/14 02:58:25;;;;;;;12.18;6.82;;;;;;;;;;5097534;28;20027;-69
2023/09/14 03:00:50;;;;;;;10.45;6.50;;;;;;;;;;5095028;28;20031;-70
2023/09/14 03:03:16;;;;;;;9.52;6.53;;;;;;;;;;5098704;28;20035;-70
2023/09/14 03:05:41;;;;;;;11.98;6.63;;;;;;;;;;5097711;28;20049;-69
2023/09/14 03:08:07;;;;;;;10.45;6.70;;;;;;;;;;5097184;28;20020;-69
2023/09/14 03:10:32;;;;;;;11.05;7.18;;;;;;;;;;5094968;28;20171;-70
2023/09/14 03:12:57;;;;;;;12.35;7.57;;;;;;;;;;5096798;28;20088;-73
2023/09/14 03:15:23;;;;;;;11.52;7.53;;;;;;;;;;5095858;28;20039;-70
2023/09/14 03:17:49;;;;;;;8.32;6.35;;;;;;;;;;5096608;28;20423;-71
2023/09/14 03:20:15;;;;;;;9.30;6.20;;;;;;;;;;5095453;28;20027;-71
2023/09/14 03:22:40;;;;;;;9.63;7.07;;;;;;;;;;5090187;28;20447;-72
2023/09/14 03:25:06;;;;;;;17.13;9.55;;;;;;;;;;5097703;28;20061;-69
2023/09/14 03:27:31;;;;;;;15.52;8.75;;;;;;;;;;5095859;28;20031;-73
2023/09/14 03:29:58;;;;;;;16.13;9.00;;;;;;;;;;5091503;28;20108;-70
2023/09/14 03:32:23;;;;;;;13.38;8.45;;;;;;;;;;5088142;28;20487;-70
2023/09/14 03:34:48;;;;;;;18.38;10.85;;;;;;;;;;5090687;28;20028;-70
2023/09/14 03:37:14;;;;;;;15.45;9.98;;;;;;;;;;5092578;28;20446;-71
2023/09/14 03:39:39;;;;;;;18.60;10.85;;;;;;;;;;5090976;28;20374;-70
2023/09/14 03:42:05;;;;;;;22.90;9.90;;;;;;;;;;5095009;28;20055;-69
2023/09/14 03:44:30;;;;;;;15.93;9.20;;;;;;;;;;5095579;28;20030;-69
2023/09/14 03:46:56;;;;;;;18.17;9.95;;;;;;;;;;5097380;28;20027;-70
2023/09/14 03:49:21;;;;;;;41.47;18.08;;;;;;;;;;5097225;28;20030;-71
2023/09/14 03:51:47;;;;;;;29.08;15.25;;;;;;;;;;5096744;28;20030;-70
2023/09/14 03:54:13;;;;;;;23.90;11.35;;;;;;;;;;5094250;28;20114;-70
2023/09/14 03:56:38;;;;;;;9.80;7.57;;;;;;;;;;5087488;28;20575;-69
2023/09/14 03:59:05;;;;;;;8.85;6.20;;;;;;;;;;5093830;28;20031;-70
2023/09/14 04:01:30;;;;;;;8.90;6.22;;;;;;;;;;5086892;28;20027;-70
2023/09/14 04:03:56;;;;;;;9.35;6.75;;;;;;;;;;5088668;28;20031;-70
2023/09/14 04:06:21;;;;;;;9.30;6.38;;;;;;;;;;5086086;28;20034;-71
2023/09/14 04:08:46;;;;;;;9.73;7.03;;;;;;;;;;5086784;28;20034;-73
2023/09/14 04:11:12;;;;;;;7.78;6.20;;;;;;;;;;5086935;28;20115;-71
2023/09/14 04:13:37;;;;;;;7.63;6.30;;;;;;;;;;5087070;28;20062;-72
2023/09/14 04:16:03;;;;;;;8.25;6.45;;;;;;;;;;5086446;28;20496;-70
2023/09/14 04:18:33;;;;;;;9.82;7.45;;;;;;;;;;5086524;28;20049;-70
2023/09/14 04:20:58;;;;;;;;;;;;;;;;;;5087543;28;20116;-68
2023/09/14 04:23:23;;;;;;;15.23;8.60;;;;;;;;;;5100634;28;20014;-68
2023/09/14 04:25:49;;;;;;;8.65;7.32;;;;;;;;;;5097067;27;20422;-70
2023/09/14 04:28:15;;;;;;;10.52;6.72;;;;;;;;;;5090126;28;20350;-70
2023/09/14 04:30:41;;;;;;;9.95;6.45;;;;;;;;;;5089954;28;20031;-70
2023/09/14 04:33:06;;;;;;;8.63;6.50;;;;;;;;;;5100740;28;20028;-73
2023/09/14 04:35:32;;;;;;;10.70;6.90;;;;;;;;;;5098094;28;20031;-72
2023/09/14 04:37:57;;;;;;;15.75;9.20;;;;;;;;;;5090539;28;20035;-72
2023/09/14 04:40:23;;;;;;;20.67;11.07;;;;;;;;;;5096775;28;20174;-71
2023/09/14 04:42:48;;;;;;;20.05;10.27;;;;;;;;;;5098700;28;20023;-71
2023/09/14 04:45:14;;;;;;;14.57;9.82;;;;;;;;;;5099618;27;20016;-70
2023/09/14 04:47:39;;;;;;;14.05;8.80;;;;;;;;;;5096987;28;20454;-71
2023/09/14 04:50:05;;;;;;;13.05;8.43;;;;;;;;;;5092789;28;20336;-74
2023/09/14 04:52:30;;;;;;;10.85;7.63;;;;;;;;;;5092944;28;20334;-71
2023/09/14 04:54:55;;;;;;;13.88;7.82;;;;;;;;;;5097862;28;20530;-73
2023/09/14 04:57:23;;;;;;;16.88;10.57;;;;;;;;;;5091244;28;20528;-71
2023/09/14 04:59:49;;;;;;;30.83;16.25;;;;;;;;;;5089157;28;20074;-71
2023/09/14 05:02:15;;;;;;;28.33;14.80;;;;;;;;;;5087585;28;20443;-71
2023/09/14 05:04:40;;;;;;;12.35;9.13;;;;;;;;;;5089296;28;20015;-71
2023/09/14 05:07:05;;;;;;;10.18;6.95;;;;;;;;;;5090998;28;20022;-72
2023/09/14 05:09:31;;;;;;;10.90;7.10;;;;;;;;;;5098725;28;20023;-70
2023/09/14 05:11:56;;;;;;;10.73;6.78;;;;;;;;;;5099583;28;20057;-73
2023/09/14 05:14:22;;;;;;;11.98;6.90;;;;;;;;;;5095281;28;20447;-71
2023/09/14 05:16:47;;;;;;;13.52;6.57;;;;;;;;;;5099220;28;20039;-71
2023/09/14 05:19:12;;;;;;;7.32;6.38;;;;;;;;;;5093315;28;20024;-71
2023/09/14 05:21:38;;;;;;;12.20;6.47;;;;;;;;;;5088449;28;20088;-71
2023/09/14 05:24:04;;;;;;;9.98;6.32;;;;;;;;;;5094903;28;20081;-70
2023/09/14 05:26:29;;;;;;;12.93;8.18;;;;;;;;;;5097750;28;20023;-72
2023/09/14 05:28:54;;;;;;;12.85;8.23;;;;;;;;;;5095931;28;20073;-70
2023/09/14 05:31:20;;;;;;;14.82;8.05;;;;;;;;;;5097766;28;20039;-71
2023/09/14 05:33:45;;;;;;;12.63;7.50;;;;;;;;;;5100665;28;20034;-71
2023/09/14 05:36:11;;;;;;;9.88;7.15;;;;;;;;;;5099703;28;20032;-73
2023/09/14 05:38:36;;;;;;;15.57;8.05;;;;;;;;;;5099313;28;20026;-70
2023/09/14 05:41:02;;;;;;;12.77;7.55;;;;;;;;;;5097453;28;20044;-71
2023/09/14 05:43:28;;;;;;;17.05;10.10;;;;;;;;;;5089643;28;20076;-72
2023/09/14 05:45:54;;;;;;;18.77;10.73;;;;;;;;;;5099391;28;20027;-72
2023/09/14 05:48:19;;;;;;;19.33;10.40;;;;;;;;;;5090624;28;20019;-72
2023/09/14 05:50:45;;;;;;;16.50;8.85;;;;;;;;;;5096611;28;20737;-72
2023/09/14 05:53:10;;;;;;;20.85;9.57;;;;;;;;;;5100203;27;20042;-70
2023/09/14 05:55:35;;;;;;;23.20;12.75;;;;;;;;;;5100716;28;20035;-71
2023/09/14 05:58:01;;;;;;;11.98;7.47;;;;;;;;;;5091307;28;20065;-70
2023/09/14 06:00:26;;;;;;;9.57;6.72;;;;;;;;;;5087940;28;20028;-71
2023/09/14 06:02:52;;;;;;;11.88;7.18;;;;;;;;;;5092456;28;20020;-71
2023/09/14 06:05:18;;;;;;;12.02;6.63;;;;;;;;;;5097506;28;20446;-72
2023/09/14 06:07:44;;;;;;;8.40;6.35;;;;;;;;;;5089945;28;20027;-71
2023/09/14 06:10:09;;;;;;;11.27;6.13;;;;;;;;;;5083746;28;20032;-72
2023/09/14 06:12:35;;;;;;;8.77;5.82;;;;;;;;;;5099716;28;20036;-72
2023/09/14 06:15:00;;;;;;;10.05;6.18;;;;;;;;;;5097916;28;20123;-74
2023/09/14 06:17:26;;;;;;;10.38;6.80;;;;;;;;;;5100557;28;20028;-70
2023/09/14 06:19:51;;;;;;;9.63;5.88;;;;;;;;;;5097436;28;20316;-73
2023/09/14 06:22:17;;;;;;;12.25;6.43;;;;;;;;;;5101182;28;20099;-72
2023/09/14 06:24:42;;;;;;;10.05;8.52;;;;;;;;;;5096711;28;20036;-71
2023/09/14 06:27:07;;;;;;;13.40;10.13;;;;;;;;;;5099563;28;20023;-74
2023/09/14 06:29:33;;;;;;;15.57;10.68;;;;;;;;;;5096322;28;20469;-72
2023/09/14 06:31:58;;;;;;;15.40;9.85;;;;;;;;;;5097893;28;20035;-74
2023/09/14 06:34:23;;;;;;;14.02;9.73;;;;;;;;;;5098391;28;20097;-72
2023/09/14 06:36:49;;;;;;;12.32;7.45;;;;;;;;;;5094429;28;20034;-72
2023/09/14 06:39:14;;;;;;;13.02;7.95;;;;;;;;;;5097284;28;20037;-71
2023/09/14 06:41:39;;;;;;;11.38;8.10;;;;;;;;;;5099709;28;20066;-72
2023/09/14 06:44:05;;;;;;;13.70;8.20;;;;;;;;;;5097152;28;20034;-71
2023/09/14 06:46:30;;;;;;;10.60;6.70;;;;;;;;;;5098605;28;20114;-73
2023/09/14 06:48:56;;;;;;;12.68;6.85;;;;;;;;;;5098596;28;20092;-72
2023/09/14 06:51:21;;;;;;;9.10;6.53;;;;;;;;;;5098699;28;20019;-70
2023/09/14 06:53:47;;;;;;;9.35;6.18;;;;;;;;;;5097710;28;20039;-72
2023/09/14 06:56:12;;;;;;;8.85;5.90;;;;;;;;;;5087741;28;20488;-73
2023/09/14 06:58:37;;;;;;;9.23;5.80;;;;;;;;;;5087636;28;20453;-76
2023/09/14 07:01:06;;;;;;;8.25;5.57;;;;;;;;;;5087796;28;20028;-73
2023/09/14 07:03:32;;;;;;;12.13;6.05;;;;;;;;;;5087509;28;20094;-75
2023/09/14 07:05:58;;;;;;;8.60;5.40;;;;;;;;;;5085870;28;20039;-73
2023/09/14 07:08:23;;;;;;;13.02;5.68;;;;;;;;;;5086339;28;20024;-74
2023/09/14 07:10:48;;;;;;;11.48;6.03;;;;;;;;;;5087133;28;20477;-73
2023/09/14 07:13:14;;;;;;;15.32;6.93;;;;;;;;;;5086521;28;20036;-73
2023/09/14 07:15:40;;;;;;;12.07;5.82;;;;;;;;;;5087153;28;20024;-73
2023/09/14 07:18:05;;;;;;;11.90;6.47;;;;;;;;;;5086983;28;20019;-74
2023/09/14 07:20:31;;;;;;;14.82;6.78;;;;;;;;;;5087014;28;20095;-73
2023/09/14 07:22:57;;;;;;;11.05;6.50;;;;;;;;;;5087891;28;20423;-73
2023/09/14 07:25:23;;;;;;;14.02;6.70;;;;;;;;;;5087148;28;21010;-72
2023/09/14 07:27:48;;;;;;;9.20;5.72;;;;;;;;;;5086848;28;20023;-73
2023/09/14 07:30:14;;;;;;;12.55;6.72;;;;;;;;;;5087864;28;20046;-74
2023/09/14 07:32:40;;;;;;;19.70;9.98;;;;;;;;;;5087410;28;20015;-72
2023/09/14 07:35:06;;;;;;;15.82;8.95;;;;;;;;;;5086751;28;20036;-72
2023/09/14 07:37:32;;;;;;;15.65;8.32;;;;;;;;;;5087742;28;20032;-72
2023/09/14 07:39:57;;;;;;;20.83;6.38;;;;;;;;;;5086580;28;20454;-72
2023/09/14 07:42:22;;;;;;;22.08;6.75;;;;;;;;;;5086656;28;20031;-74
2023/09/14 07:44:48;;;;;;;9.27;5.93;;;;;;;;;;5085876;28;20031;-75
2023/09/14 07:47:13;;;;;;;12.82;5.32;;;;;;;;;;5087288;28;20020;-71
2023/09/14 07:49:38;;;;;;;9.25;5.95;;;;;;;;;;5086410;28;20015;-71
2023/09/14 07:52:04;;;;;;;10.60;5.40;;;;;;;;;;5084783;28;20032;-72
2023/09/14 07:54:31;;;;;;;12.48;5.95;;;;;;;;;;5080413;28;20027;-72
2023/09/14 07:56:56;;;;;;;11.80;5.32;;;;;;;;;;5090586;28;20297;-74
2023/09/14 07:59:21;;;;;;;18.05;11.20;;;;;;;;;;5091519;27;21012;-73
2023/09/14 08:01:47;;;;;;;11.75;7.80;;;;;;;;;;5096708;27;20023;-74
2023/09/14 08:04:12;;;;;;;14.05;8.40;;;;;;;;;;5100573;28;20043;-73
2023/09/14 08:06:38;;;;;;;15.45;10.15;;;;;;;;;;5101593;28;20027;-73
2023/09/14 08:09:03;;;;;;;12.98;7.90;;;;;;;;;;5100922;28;20028;-73
2023/09/14 08:11:29;;;;;;;10.45;6.43;;;;;;;;;;5103908;28;20419;-78
2023/09/14 08:13:54;;;;;;;9.63;6.18;;;;;;;;;;5100167;28;20063;-76
2023/09/14 08:16:20;;;;;;;22.00;7.18;;;;;;;;;;5102956;28;20111;-75
2023/09/14 08:18:45;;;;;;;14.90;8.13;;;;;;;;;;5089603;28;20047;-75
2023/09/14 08:21:10;;;;;;;13.23;6.55;;;;;;;;;;5088633;28;20047;-75
2023/09/14 08:23:36;;;;;;;12.48;5.63;;;;;;;;;;5090126;28;20539;-75
2023/09/14 08:26:04;;;;;;;12.73;5.60;;;;;;;;;;5090058;27;20135;-77
2023/09/14 08:28:30;;;;;;;9.88;6.13;;;;;;;;;;5090049;28;20050;-74
2023/09/14 08:30:55;;;;;;;14.13;6.65;;;;;;;;;;5089286;28;20020;-75
2023/09/14 08:33:21;;;;;;;11.55;6.13;;;;;;;;;;5089729;27;21119;-77
2023/09/14 08:35:46;;;;;;;11.95;8.10;;;;;;;;;;5088390;27;20116;-75
2023/09/14 08:38:11;;;;;;;10.05;5.63;;;;;;;;;;5077973;28;20725;-75
2023/09/14 08:40:37;;;;;;;10.27;6.40;;;;;;;;;;5089345;28;20047;-73
2023/09/14 08:43:08;;;;;;;14.98;8.63;;;;;;;;;;5090237;28;23783;-75
2023/09/14 08:45:34;;;;;;;13.07;6.72;;;;;;;;;;5089122;28;20077;-74
2023/09/14 08:48:01;;;;;;;14.27;6.95;;;;;;;;;;5090643;28;20123;-76
2023/09/14 08:50:28;;;;;;;11.82;7.35;;;;;;;;;;5097293;28;20031;-74
2023/09/14 08:52:53;;;;;;;10.90;6.60;;;;;;;;;;5092045;28;20096;-74
2023/09/14 08:55:20;;;;;;;9.20;6.18;;;;;;;;;;5084920;28;20416;-72
2023/09/14 08:57:46;;;;;;;9.30;5.72;;;;;;;;;;5097254;28;20111;-73
2023/09/14 09:00:15;;;;;;;9.38;5.90;;;;;;;;;;5090426;28;20110;-74
2023/09/14 09:02:51;;;;;;;10.98;5.65;;;;;;;;;;5096016;28;20111;-72
2023/09/14 09:05:17;;;;;;;11.70;5.30;;;;;;;;;;5100231;28;20030;-75
2023/09/14 09:07:43;;;;;;;13.32;5.18;;;;;;;;;;5098638;28;20091;-74
2023/09/14 09:10:14;;;;;;;8.02;5.40;;;;;;;;;;5099776;28;20435;-73
2023/09/14 09:12:39;;;;;;;10.50;5.65;;;;;;;;;;5101205;28;20045;-75
2023/09/14 09:15:06;;;;;;;10.52;6.15;;;;;;;;;;5096737;28;20522;-75
2023/09/14 09:17:38;;;;;;;13.85;7.97;;;;;;;;;;5093473;28;20034;-73
2023/09/14 09:20:11;;;;;;;10.30;6.38;;;;;;;;;;5093439;28;20330;-75
2023/09/14 09:22:39;;;;;;;10.85;6.68;;;;;;;;;;5081196;28;20019;-72
2023/09/14 09:25:04;;;;;;;13.75;6.60;;;;;;;;;;5079589;28;20041;-72
2023/09/14 09:27:30;;;;;;;16.13;9.93;;;;;;;;;;5079343;28;20136;-72
2023/09/14 09:29:58;;;;;;;21.23;10.38;;;;;;;;;;5082869;28;20073;-72
2023/09/14 09:32:23;;;;;;;12.88;7.50;;;;;;;;;;5080705;28;20070;-74
2023/09/14 09:34:49;;;;;;;13.13;7.35;;;;;;;;;;5082735;28;20063;-72
2023/09/14 09:37:14;;;;;;;10.82;5.95;;;;;;;;;;5082636;28;20036;-75
2023/09/14 09:39:44;;;;;;;10.35;5.75;;;;;;;;;;5085915;28;20040;-71
2023/09/14 09:42:09;;;;;;;;;;;;;;;;;;5080159;28;20024;-74
2023/09/14 09:44:34;;;;;;;13.23;6.30;;;;;;;;;;5082620;28;20127;-74
2023/09/14 09:47:01;;;;;;;9.75;5.78;;;;;;;;;;5095174;28;20115;-72
2023/09/14 09:49:28;;;;;;;13.70;6.30;;;;;;;;;;5098763;28;20144;-75
2023/09/14 09:51:53;;;;;;;13.15;6.47;;;;;;;;;;5089427;28;20106;-71
2023/09/14 09:54:19;;;;;;;8.70;5.28;;;;;;;;;;5086026;28;20208;-72
2023/09/14 09:56:45;;;;;;;11.43;6.32;;;;;;;;;;5087320;28;20035;-74
2023/09/14 09:59:13;;;;;;;13.70;6.75;;;;;;;;;;5092190;28;20038;-74
2023/09/14 10:01:43;;;;;;;10.63;5.93;;;;;;;;;;5086012;28;20027;-74
2023/09/14 10:04:12;;;;;;;9.73;6.30;;;;;;;;;;5088178;28;20268;-75
2023/09/14 10:06:38;;;;;;;7.63;5.80;;;;;;;;;;5087264;28;20111;-75
2023/09/14 10:09:07;;;;;;;9.52;6.15;;;;;;;;;;5087155;28;20038;-74
2023/09/14 10:11:33;;;;;;;10.07;5.80;;;;;;;;;;5087326;28;20015;-74
2023/09/14 10:14:00;;;;;;;8.77;5.40;;;;;;;;;;5088385;28;20415;-75
2023/09/14 10:16:26;;;;;;;11.82;6.72;;;;;;;;;;5087209;27;20337;-75
2023/09/14 10:18:54;;;;;;;9.35;5.72;;;;;;;;;;5087318;28;20403;-75
2023/09/14 10:21:20;;;;;;;11.45;6.15;;;;;;;;;;5088147;28;20035;-74
2023/09/14 10:23:45;;;;;;;9.70;5.93;;;;;;;;;;5088406;28;20053;-75
2023/09/14 10:26:11;;;;;;;10.93;6.00;;;;;;;;;;5089378;28;20450;-73
2023/09/14 10:28:37;;;;;;;10.40;6.32;;;;;;;;;;5093971;28;21021;-76
2023/09/14 10:31:03;;;;;;;10.68;5.88;;;;;;;;;;5093591;28;20142;-73
2023/09/14 10:33:28;;;;;;;14.23;7.80;;;;;;;;;;5098143;28;20126;-73
2023/09/14 10:35:55;;;;;;;18.50;8.80;;;;;;;;;;5090679;28;20092;-73
2023/09/14 10:38:23;;;;;;;9.85;5.68;;;;;;;;;;5082798;28;20051;-76
2023/09/14 10:40:50;;;;;;;9.57;5.53;;;;;;;;;;5099944;28;20047;-75
2023/09/14 10:43:15;;;;;;;11.40;6.05;;;;;;;;;;5098196;28;20046;-75
2023/09/14 10:45:43;;;;;;;9.73;5.70;;;;;;;;;;5094074;28;20355;-75
2023/09/14 10:48:11;;;;;;;10.70;5.95;;;;;;;;;;5094598;28;20030;-75
2023/09/14 10:50:36;;;;;;;10.27;5.90;;;;;;;;;;5101525;28;20434;-78
2023/09/14 10:53:02;;;;;;;7.25;5.00;;;;;;;;;;5092344;28;20077;-76
2023/09/14 10:55:27;;;;;;;12.60;6.25;;;;;;;;;;5087670;28;20032;-75
2023/09/14 10:57:53;;;;;;;7.53;5.40;;;;;;;;;;5088171;28;20023;-75
2023/09/14 11:00:32;;;;;;;9.85;6.32;;;;;;;;;;5087101;28;20104;-75
2023/09/14 11:02:58;;;;;;;7.53;5.53;;;;;;;;;;5087147;28;20055;-76
2023/09/14 11:05:38;;;;;;;8.15;5.32;;;;;;;;;;5087128;28;20130;-75
2023/09/14 11:08:03;;;;;;;9.80;5.57;;;;;;;;;;5086639;28;20028;-75
2023/09/14 11:10:29;;;;;;;8.82;5.85;;;;;;;;;;5087983;28;20128;-75
2023/09/14 11:13:13;;;;;;;10.05;6.00;;;;;;;;;;5087420;28;20395;-77
2023/09/14 11:15:39;;;;;;;13.55;6.57;;;;;;;;;;5085297;28;20031;-75
2023/09/14 11:18:04;;;;;;;13.20;6.25;;;;;;;;;;5088152;28;20322;-76
2023/09/14 11:20:39;;;;;;;9.50;5.78;;;;;;;;;;5086662;28;20350;-76
2023/09/14 11:23:07;;;;;;;12.75;6.85;;;;;;;;;;5093906;28;20039;-75
2023/09/14 11:25:36;;;;;;;10.88;6.32;;;;;;;;;;5099395;28;20024;-76
2023/09/14 11:28:05;;;;;;;10.77;6.20;;;;;;;;;;5098433;28;20034;-75
2023/09/14 11:30:31;;;;;;;12.75;7.20;;;;;;;;;;5100341;28;20439;-78
2023/09/14 11:32:59;;;;;;;10.25;6.93;;;;;;;;;;5101687;28;20122;-78
2023/09/14 11:35:34;;;;;;;9.87;6.73;;;;;;;;;;5102555;28;20067;-75
2023/09/14 11:38:03;;;;;;;9.23;6.50;;;;;;;;;;5103386;28;20034;-77
2023/09/14 11:40:33;;;;;;;8.23;6.60;;;;;;;;;;5104697;28;20055;-78
2023/09/14 11:43:07;;;;;;;9.82;6.97;;;;;;;;;;5099537;28;20023;-77
2023/09/14 11:45:38;;;;;;;14.00;9.35;;;;;;;;;;5096375;28;20073;-74
2023/09/14 11:48:04;;;;;;;8.35;7.15;;;;;;;;;;5102504;28;20050;-74
2023/09/14 11:50:30;;;;;;;10.13;7.88;;;;;;;;;;5103114;28;20020;-74
2023/09/14 11:52:57;;;;;;;8.90;7.40;;;;;;;;;;5103126;28;20051;-76
2023/09/14 11:55:22;;;;;;;8.90;7.53;;;;;;;;;;5105675;28;20077;-77
2023/09/14 11:57:48;;;;;;;11.88;7.72;;;;;;;;;;5102782;28;20040;-75
2023/09/14 12:00:14;;;;;;;10.18;8.10;;;;;;;;;;5095167;28;20019;-74
2023/09/14 12:02:39;;;;;;;8.52;6.55;;;;;;;;;;5101464;28;20016;-75
2023/09/14 12:05:05;;;;;;;7.93;6.97;;;;;;;;;;5098430;28;20349;-74
2023/09/14 12:07:30;;;;;;;8.77;6.55;;;;;;;;;;5096458;28;20096;-76
2023/09/14 12:09:56;;;;;;;9.23;6.90;;;;;;;;;;5102880;28;20023;-74
2023/09/14 12:12:30;;;;;;;9.00;6.93;;;;;;;;;;5092458;28;20038;-77
2023/09/14 12:15:01;;;;;;;9.75;7.22;;;;;;;;;;5101003;28;20031;-74
2023/09/14 12:17:27;;;;;;;10.93;7.00;;;;;;;;;;5090700;28;20031;-75
2023/09/14 12:19:56;;;;;;;8.98;6.10;;;;;;;;;;5092718;28;20435;-75
2023/09/14 12:22:23;;;;;;;11.73;6.57;;;;;;;;;;5090913;28;20038;-74
2023/09/14 12:24:52;;;;;;;7.40;5.57;;;;;;;;;;5090989;28;20073;-77
2023/09/14 12:27:18;;;;;;;14.52;6.68;;;;;;;;;;5091200;28;20024;-74
2023/09/14 12:29:45;;;;;;;10.15;6.70;;;;;;;;;;5089579;28;20027;-75
2023/09/14 12:32:11;;;;;;;13.18;6.47;;;;;;;;;;5089251;28;20057;-74
2023/09/14 12:34:36;;;;;;;11.77;7.38;;;;;;;;;;5089882;28;20024;-72
2023/09/14 12:37:03;;;;;;;9.30;6.20;;;;;;;;;;5098778;28;20032;-74
2023/09/14 12:39:28;;;;;;;7.38;6.07;;;;;;;;;;5096142;28;20028;-75
2023/09/14 12:41:54;;;;;;;9.57;5.97;;;;;;;;;;5104194;28;20116;-73
2023/09/14 12:44:23;;;;;;;11.15;6.78;;;;;;;;;;5100108;28;21357;-74
2023/09/14 12:46:50;;;;;;;9.50;5.90;;;;;;;;;;5093800;28;20035;-75
2023/09/14 12:49:16;;;;;;;10.88;6.78;;;;;;;;;;5102096;28;20371;-78
2023/09/14 12:51:48;;;;;;;11.65;6.78;;;;;;;;;;5103078;28;20069;-76
2023/09/14 12:54:13;;;;;;;9.95;6.47;;;;;;;;;;5102983;28;20131;-77
2023/09/14 12:56:41;;;;;;;10.05;6.25;;;;;;;;;;5098227;28;20023;-77
2023/09/14 12:59:06;;;;;;;10.65;6.40;;;;;;;;;;5102155;28;20413;-76
2023/09/14 13:01:33;;;;;;;11.30;6.93;;;;;;;;;;5100911;28;20110;-76
2023/09/14 13:03:58;;;;;;;12.68;8.25;;;;;;;;;;5101613;28;20138;-76
2023/09/14 13:06:23;;;;;;;12.77;6.60;;;;;;;;;;5102257;28;20115;-76
2023/09/14 13:08:51;;;;;;;8.60;7.03;;;;;;;;;;5102614;28;20051;-76
2023/09/14 13:11:20;;;;;;;9.45;7.70;;;;;;;;;;5099419;28;20046;-76
2023/09/14 13:13:46;;;;;;;9.73;7.25;;;;;;;;;;5087672;28;20027;-76
2023/09/14 13:16:14;;;;;;;9.60;8.52;;;;;;;;;;5089458;28;20050;-78
2023/09/14 13:18:40;;;;;;;10.93;7.63;;;;;;;;;;5099778;28;20057;-76
2023/09/14 13:21:06;;;;;;;16.27;7.20;;;;;;;;;;5088647;27;20032;-78
2023/09/14 13:23:31;;;;;;;11.32;6.82;;;;;;;;;;5092800;28;20038;-76
2023/09/14 13:25:56;;;;;;;9.90;6.53;;;;;;;;;;5101403;28;20031;-75
2023/09/14 13:28:24;;;;;;;10.68;6.78;;;;;;;;;;5101597;28;20031;-78
2023/09/14 13:30:50;;;;;;;8.52;7.30;;;;;;;;;;5101244;28;20031;-76
2023/09/14 13:33:16;;;;;;;11.85;8.10;;;;;;;;;;5102833;28;20034;-76
2023/09/14 13:35:42;;;;;;;9.52;7.45;;;;;;;;;;5100343;28;20048;-76
2023/09/14 13:38:08;;;;;;;11.32;7.75;;;;;;;;;;5099423;28;20435;-76
2023/09/14 13:40:33;;;;;;;13.23;8.13;;;;;;;;;;5092729;28;20051;-76
2023/09/14 13:42:59;;;;;;;9.95;8.02;;;;;;;;;;5092624;28;20439;-73
2023/09/14 13:45:25;;;;;;;9.77;7.40;;;;;;;;;;5093696;28;20027;-75
2023/09/14 13:47:51;;;;;;;10.32;7.97;;;;;;;;;;5086349;28;20034;-74
2023/09/14 13:50:17;;;;;;;14.05;8.05;;;;;;;;;;5096384;28;20448;-78
2023/09/14 13:52:43;;;;;;;8.38;7.10;;;;;;;;;;5094152;28;20035;-75
2023/09/14 13:55:09;;;;;;;12.35;7.72;;;;;;;;;;5087647;28;20377;-75
2023/09/14 13:57:35;;;;;;;12.20;6.85;;;;;;;;;;5087540;28;20020;-75
2023/09/14 14:00:01;;;;;;;9.30;7.38;;;;;;;;;;5087761;28;20030;-74
2023/09/14 14:02:27;;;;;;;8.32;6.88;;;;;;;;;;5095529;28;20019;-74
2023/09/14 14:04:52;;;;;;;8.05;7.25;;;;;;;;;;5099246;28;20034;-76
2023/09/14 14:07:18;;;;;;;11.90;7.00;;;;;;;;;;5101600;28;20113;-74
2023/09/14 14:09:45;;;;;;;11.57;7.55;;;;;;;;;;5099521;28;20023;-74
2023/09/14 14:12:10;;;;;;;9.50;7.20;;;;;;;;;;5101978;28;20399;-75
2023/09/14 14:14:35;;;;;;;13.75;6.80;;;;;;;;;;5098499;28;20112;-75
2023/09/14 14:17:01;;;;;;;9.38;7.13;;;;;;;;;;5092252;28;20034;-76
2023/09/14 14:19:26;;;;;;;10.32;7.60;;;;;;;;;;5101492;28;20035;-75
2023/09/14 14:21:52;;;;;;;8.65;6.63;;;;;;;;;;5095581;28;20027;-75
2023/09/14 14:24:17;;;;;;;11.55;7.45;;;;;;;;;;5099996;28;20147;-75
2023/09/14 14:26:43;;;;;;;9.98;7.10;;;;;;;;;;5099339;28;20047;-74